createdAt,value
2024-03-27T00:01:12.350Z,7.13
2024-03-27T00:06:24.412Z,7.04
2024-03-27T00:11:30.341Z,6.99
2024-03-27T00:16:36.557Z,6.98
2024-03-27T00:21:42.638Z,6.97
2024-03-27T00:26:48.778Z,6.95
2024-03-27T00:31:56.278Z,6.90
2024-03-27T00:37:03.098Z,6.86
2024-03-27T00:42:09.228Z,6.80
2024-03-27T00:47:15.081Z,6.74
2024-03-27T00:52:21.175Z,6.69
2024-03-27T00:57:27.232Z,6.67
2024-03-27T01:02:33.307Z,6.65
2024-03-27T01:07:39.323Z,6.63
2024-03-27T01:12:45.858Z,6.61
2024-03-27T01:17:51.998Z,6.58
2024-03-27T01:22:58.171Z,6.54
2024-03-27T01:28:04.874Z,6.57
2024-03-27T01:33:11.125Z,6.59
2024-03-27T01:38:17.281Z,6.59
2024-03-27T01:43:23.580Z,6.57
2024-03-27T01:48:29.500Z,6.52
2024-03-27T01:53:36.173Z,6.44
2024-03-27T01:58:42.579Z,6.39
2024-03-27T02:03:49.889Z,6.37
2024-03-27T02:08:56.019Z,6.35
2024-03-27T02:14:02.027Z,6.34
2024-03-27T02:19:08.653Z,6.32
2024-03-27T02:24:20.623Z,6.29
2024-03-27T02:29:26.878Z,6.28
2024-03-27T02:34:33.077Z,6.31
2024-03-27T02:39:39.176Z,6.36
2024-03-27T02:44:45.339Z,6.42
2024-03-27T02:49:51.681Z,6.48
2024-03-27T02:54:57.891Z,6.54
2024-03-27T03:00:08.957Z,6.58
2024-03-27T03:05:15.278Z,6.59
2024-03-27T03:10:21.270Z,6.57
2024-03-27T03:15:27.361Z,6.51
2024-03-27T03:20:33.387Z,6.46
2024-03-27T03:25:39.306Z,6.43
2024-03-27T03:30:45.582Z,6.38
2024-03-27T03:35:57.132Z,6.34
2024-03-27T03:41:06.707Z,6.25
2024-03-27T03:46:14.220Z,6.19
2024-03-27T03:51:20.418Z,6.18
2024-03-27T03:56:26.397Z,6.16
2024-03-27T04:01:32.438Z,6.16
2024-03-27T04:06:38.446Z,6.18
2024-03-27T04:11:44.381Z,6.18
2024-03-27T04:16:50.553Z,6.21
2024-03-27T04:21:56.776Z,6.27
2024-03-27T04:27:02.835Z,6.27
2024-03-27T04:32:09.790Z,6.29
2024-03-27T04:37:15.930Z,6.32
2024-03-27T04:42:21.869Z,6.34
2024-03-27T04:47:27.774Z,6.36
2024-03-27T04:52:33.802Z,6.41
2024-03-27T04:57:39.839Z,6.48
2024-03-27T05:02:45.882Z,6.56
2024-03-27T05:07:51.946Z,6.65
2024-03-27T05:12:57.953Z,6.72
2024-03-27T05:18:04.565Z,6.80
2024-03-27T05:23:13.011Z,6.89
2024-03-27T05:28:19.186Z,7.00
2024-03-27T05:33:25.096Z,7.13
2024-03-27T05:38:31.911Z,7.33
2024-03-27T05:43:38.231Z,7.59
2024-03-27T05:48:44.305Z,8.08
2024-03-27T05:53:50.737Z,9.31
2024-03-27T05:58:57.699Z,10.11
2024-03-27T06:04:03.756Z,10.47
2024-03-27T06:09:10.140Z,10.11
2024-03-27T06:14:16.150Z,9.80
2024-03-27T06:19:22.626Z,9.55
2024-03-27T06:24:29.161Z,9.35
2024-03-27T06:29:35.657Z,9.64
2024-03-27T06:34:41.968Z,11.26
2024-03-27T06:39:48.385Z,13.26
2024-03-27T06:44:58.930Z,15.55
2024-03-27T06:50:06.368Z,17.55
2024-03-27T06:55:13.155Z,18.91
2024-03-27T07:00:20.562Z,19.77
2024-03-27T07:05:26.701Z,20.48
2024-03-27T07:10:32.729Z,20.87
2024-03-27T07:15:38.833Z,21.41
2024-03-27T07:20:44.914Z,22.39
2024-03-27T07:25:51.017Z,23.40
2024-03-27T07:31:06.141Z,23.84
2024-03-27T07:36:14.119Z,24.24
2024-03-27T07:41:20.176Z,24.58
2024-03-27T07:46:26.148Z,24.30
2024-03-27T07:51:32.354Z,24.01
2024-03-27T07:56:44.935Z,24.26
2024-03-27T08:01:50.919Z,25.04
2024-03-27T08:06:58.049Z,25.18
2024-03-27T08:12:04.721Z,25.45
2024-03-27T08:17:13.833Z,25.75
2024-03-27T08:22:21.681Z,25.51
2024-03-27T08:27:27.670Z,25.71
2024-03-27T08:32:34.917Z,25.93
2024-03-27T08:37:40.926Z,26.19
2024-03-27T08:42:46.996Z,26.51
2024-03-27T08:47:53.392Z,26.76
2024-03-27T08:52:59.678Z,26.57
2024-03-27T08:58:06.478Z,26.66
2024-03-27T09:03:13.179Z,27.02
2024-03-27T09:08:19.274Z,26.88
2024-03-27T09:13:25.500Z,26.45
2024-03-27T09:18:31.802Z,26.48
2024-03-27T09:23:38.198Z,26.34
2024-03-27T09:28:44.317Z,26.43
2024-03-27T09:33:50.530Z,26.29
2024-03-27T09:38:57.293Z,26.41
2024-03-27T09:44:04.394Z,26.32
2024-03-27T09:49:10.590Z,26.43
2024-03-27T09:54:16.986Z,26.05
2024-03-27T09:59:23.579Z,26.43
2024-03-27T10:04:29.858Z,26.46
2024-03-27T10:09:36.470Z,26.12
2024-03-27T10:14:42.606Z,25.93
2024-03-27T10:19:48.777Z,26.33
2024-03-27T10:24:54.945Z,26.23
2024-03-27T10:32:18.556Z,25.68
2024-03-27T10:37:27.036Z,25.46
2024-03-27T10:42:37.760Z,25.59
2024-03-27T10:47:44.925Z,25.26
2024-03-27T10:52:53.490Z,24.81
2024-03-27T10:58:01.780Z,24.53
2024-03-27T11:03:09.249Z,24.79
2024-03-27T11:08:18.836Z,25.09
2024-03-27T11:13:25.203Z,24.98
2024-03-27T11:18:33.144Z,24.41
2024-03-27T11:23:41.875Z,23.83
2024-03-27T11:28:54.959Z,23.44
2024-03-27T11:34:01.088Z,23.05
2024-03-27T11:39:07.626Z,22.72
2024-03-27T11:44:13.841Z,22.20
2024-03-27T11:49:19.941Z,21.84
2024-03-27T11:54:29.416Z,21.68
2024-03-27T11:59:35.886Z,21.66
2024-03-27T12:04:42.407Z,21.78
2024-03-27T12:09:50.121Z,21.44
2024-03-27T12:14:57.622Z,21.38
2024-03-27T12:20:05.856Z,21.49
2024-03-27T12:25:12.766Z,21.45
2024-03-27T12:30:20.790Z,21.49
2024-03-27T12:35:27.032Z,21.46
2024-03-27T12:40:32.952Z,21.42
2024-03-27T12:45:39.001Z,21.28
2024-03-27T12:50:45.042Z,21.15
2024-03-27T12:55:52.974Z,21.13
2024-03-27T13:00:59.937Z,21.00
2024-03-27T13:06:08.305Z,20.87
2024-03-27T13:11:14.275Z,20.69
2024-03-27T13:16:20.920Z,20.76
2024-03-27T13:21:27.240Z,20.66
2024-03-27T13:26:33.060Z,20.59
2024-03-27T13:31:39.046Z,20.52
2024-03-27T13:36:45.309Z,20.39
2024-03-27T13:41:51.739Z,20.28
2024-03-27T13:46:57.800Z,20.08
2024-03-27T13:52:04.407Z,20.00
2024-03-27T13:57:10.678Z,19.95
2024-03-27T14:02:16.689Z,19.72
2024-03-27T14:07:22.708Z,19.68
2024-03-27T14:12:29.093Z,19.60
2024-03-27T14:17:35.046Z,19.56
2024-03-27T14:22:41.111Z,19.48
2024-03-27T14:27:47.249Z,19.38
2024-03-27T14:32:53.370Z,19.35
2024-03-27T14:37:59.338Z,19.22
2024-03-27T14:43:05.858Z,19.05
2024-03-27T14:48:12.263Z,19.01
2024-03-27T14:53:18.351Z,18.88
2024-03-27T14:58:24.363Z,18.61
2024-03-27T15:03:31.876Z,18.32
2024-03-27T15:08:38.227Z,18.15
2024-03-27T15:13:44.909Z,18.01
2024-03-27T15:18:51.610Z,17.94
2024-03-27T15:23:58.333Z,17.90
2024-03-27T15:29:05.798Z,17.87
2024-03-27T15:34:11.782Z,17.80
2024-03-27T15:39:18.100Z,17.73
2024-03-27T15:44:24.088Z,17.66
2024-03-27T15:49:33.332Z,17.62
2024-03-27T15:54:39.440Z,17.50
2024-03-27T15:59:45.654Z,17.40
2024-03-27T16:04:53.646Z,17.31
2024-03-27T16:10:00.959Z,17.19
2024-03-27T16:15:09.071Z,17.09
2024-03-27T16:20:17.587Z,17.01
2024-03-27T16:25:23.492Z,16.88
2024-03-27T16:30:29.457Z,16.76
2024-03-27T16:35:36.172Z,16.66
2024-03-27T16:40:42.883Z,16.54
2024-03-27T16:45:49.520Z,16.43
2024-03-27T16:50:57.808Z,16.30
2024-03-27T16:56:06.110Z,16.17
2024-03-27T17:01:12.337Z,16.03
2024-03-27T17:06:18.395Z,15.86
2024-03-27T17:11:28.286Z,15.71
2024-03-27T17:16:34.407Z,15.60
2024-03-27T17:21:40.368Z,15.49
2024-03-27T17:26:46.298Z,15.38
2024-03-27T17:31:52.496Z,15.25
2024-03-27T17:36:58.535Z,15.15
2024-03-27T17:42:04.960Z,15.05
2024-03-27T17:47:11.264Z,14.95
2024-03-27T17:52:17.299Z,14.87
2024-03-27T17:57:23.243Z,14.79
2024-03-27T18:02:29.528Z,14.70
2024-03-27T18:07:37.224Z,14.60
2024-03-27T18:12:43.326Z,14.48
2024-03-27T18:17:49.947Z,14.39
2024-03-27T18:22:55.949Z,14.28
2024-03-27T18:28:02.110Z,14.16
2024-03-27T18:33:11.101Z,14.02
2024-03-27T18:38:17.143Z,13.88
2024-03-27T18:43:23.153Z,13.78
2024-03-27T18:48:29.505Z,13.69
2024-03-27T18:53:35.496Z,13.61
2024-03-27T18:58:42.682Z,13.53
2024-03-27T19:03:48.694Z,13.46
2024-03-27T19:08:54.693Z,13.39
2024-03-27T19:14:00.968Z,13.30
2024-03-27T19:19:06.981Z,13.26
2024-03-27T19:24:13.330Z,13.22
2024-03-27T19:29:19.595Z,13.17
2024-03-27T19:34:25.683Z,13.15
2024-03-27T19:39:32.838Z,13.13
2024-03-27T19:44:39.039Z,13.11
2024-03-27T19:49:46.162Z,13.10
2024-03-27T19:54:52.549Z,13.06
2024-03-27T19:59:58.515Z,13.03
2024-03-27T20:05:05.162Z,13.02
2024-03-27T20:10:11.795Z,12.98
2024-03-27T20:15:18.692Z,12.91
2024-03-27T20:20:25.010Z,12.84
2024-03-27T20:25:32.145Z,12.74
2024-03-27T20:30:38.824Z,12.66
2024-03-27T20:35:45.264Z,12.63
2024-03-27T20:40:54.467Z,12.59
2024-03-27T20:46:00.535Z,12.59
2024-03-27T20:51:06.832Z,12.60
2024-03-27T20:56:13.197Z,12.58
2024-03-27T21:01:19.327Z,12.61
2024-03-27T21:06:25.361Z,12.59
2024-03-27T21:11:31.305Z,12.54
2024-03-27T21:16:37.431Z,12.48
2024-03-27T21:21:43.784Z,12.42
2024-03-27T21:26:50.263Z,12.39
2024-03-27T21:31:56.352Z,12.35
2024-03-27T21:37:02.493Z,12.32
2024-03-27T21:42:08.706Z,12.28
2024-03-27T21:47:15.882Z,12.24
2024-03-27T21:52:22.108Z,12.19
2024-03-27T21:57:28.102Z,12.14
2024-03-27T22:02:34.673Z,12.11
2024-03-27T22:07:40.725Z,12.06
2024-03-27T22:12:46.960Z,12.01
2024-03-27T22:17:53.078Z,11.95
2024-03-27T22:22:59.001Z,11.89
2024-03-27T22:28:06.261Z,11.83
2024-03-27T22:33:12.292Z,11.76
2024-03-27T22:38:18.505Z,11.71
2024-03-27T22:43:24.514Z,11.66
2024-03-27T22:49:00.350Z,11.61
2024-03-27T22:54:07.812Z,11.48
2024-03-27T22:59:14.160Z,11.46
2024-03-27T23:04:20.466Z,11.49
2024-03-27T23:09:26.676Z,11.48
2024-03-27T23:14:33.063Z,11.41
2024-03-27T23:19:39.182Z,11.33
2024-03-27T23:24:45.250Z,11.22
2024-03-27T23:29:51.457Z,11.11
2024-03-27T23:34:58.333Z,11.04
2024-03-27T23:40:07.334Z,10.95
2024-03-27T23:45:13.751Z,10.90
2024-03-27T23:50:20.028Z,10.84
2024-03-27T23:55:25.950Z,10.77
